sensor_id;sensor_type;location;lat;lon;timestamp;pressure;altitude;pressure_sealevel;temperature;humidity
2268;BME280;11052;43.338;25.502;2023-07-13T00:01:14;100454.44;;;22.66;100.00
2268;BME280;11052;43.338;25.502;2023-07-13T00:03:41;100456.34;;;22.64;100.00
2268;BME280;11052;43.338;25.502;2023-07-13T00:06:08;100461.63;;;22.64;100.00
2268;BME280;11052;43.338;25.502;2023-07-13T00:08:36;100458.38;;;22.60;100.00
2268;BME280;11052;43.338;25.502;2023-07-13T00:11:03;100456.59;;;22.61;100.00
2268;BME280;11052;43.338;25.502;2023-07-13T00:13:32;100456.47;;;22.51;100.00
2268;BME280;11052;43.338;25.502;2023-07-13T00:16:00;100457.56;;;22.48;100.00
2268;BME280;11052;43.338;25.502;2023-07-13T00:18:27;100447.47;;;22.42;100.00
2268;BME280;11052;43.338;25.502;2023-07-13T00:20:55;100450.56;;;22.36;100.00
2268;BME280;11052;43.338;25.502;2023-07-13T00:23:30;100452.00;;;22.29;100.00
2268;BME280;11052;43.338;25.502;2023-07-13T00:25:59;100446.34;;;22.22;100.00
2268;BME280;11052;43.338;25.502;2023-07-13T00:28:26;100450.78;;;22.22;100.00
2268;BME280;11052;43.338;25.502;2023-07-13T00:30:53;100449.72;;;22.24;100.00
2268;BME280;11052;43.338;25.502;2023-07-13T00:33:22;100440.00;;;22.25;100.00
2268;BME280;11052;43.338;25.502;2023-07-13T00:35:50;100440.09;;;22.23;100.00
2268;BME280;11052;43.338;25.502;2023-07-13T00:38:17;100440.22;;;22.22;100.00
2268;BME280;11052;43.338;25.502;2023-07-13T00:40:44;100439.63;;;22.18;100.00
2268;BME280;11052;43.338;25.502;2023-07-13T00:43:12;100445.00;;;22.17;100.00
2268;BME280;11052;43.338;25.502;2023-07-13T00:46:16;100446.94;;;22.15;100.00
2268;BME280;11052;43.338;25.502;2023-07-13T00:48:46;100443.31;;;22.16;100.00
2268;BME280;11052;43.338;25.502;2023-07-13T00:51:16;100446.31;;;22.11;100.00
2268;BME280;11052;43.338;25.502;2023-07-13T00:53:44;100438.88;;;22.05;100.00
2268;BME280;11052;43.338;25.502;2023-07-13T00:56:12;100438.63;;;22.08;100.00
2268;BME280;11052;43.338;25.502;2023-07-13T00:58:39;100440.31;;;22.09;100.00
2268;BME280;11052;43.338;25.502;2023-07-13T01:01:07;100438.63;;;22.08;100.00
2268;BME280;11052;43.338;25.502;2023-07-13T01:03:34;100437.38;;;22.01;100.00
2268;BME280;11052;43.338;25.502;2023-07-13T01:06:04;100428.97;;;21.96;100.00
2268;BME280;11052;43.338;25.502;2023-07-13T01:08:31;100435.53;;;21.90;100.00
2268;BME280;11052;43.338;25.502;2023-07-13T01:10:58;100438.53;;;21.86;100.00
2268;BME280;11052;43.338;25.502;2023-07-13T01:13:26;100438.53;;;21.86;100.00
2268;BME280;11052;43.338;25.502;2023-07-13T01:15:55;100440.78;;;21.79;100.00
2268;BME280;11052;43.338;25.502;2023-07-13T01:18:25;100437.28;;;21.79;100.00
2268;BME280;11052;43.338;25.502;2023-07-13T01:20:56;100437.28;;;21.79;100.00
2268;BME280;11052;43.338;25.502;2023-07-13T01:23:24;100432.03;;;21.79;100.00
2268;BME280;11052;43.338;25.502;2023-07-13T01:25:51;100433.59;;;21.81;100.00
2268;BME280;11052;43.338;25.502;2023-07-13T01:28:19;100433.59;;;21.81;100.00
2268;BME280;11052;43.338;25.502;2023-07-13T01:30:46;100443.19;;;21.82;100.00
2268;BME280;11052;43.338;25.502;2023-07-13T01:33:15;100434.31;;;21.83;100.00
2268;BME280;11052;43.338;25.502;2023-07-13T01:35:44;100437.69;;;21.85;100.00
2268;BME280;11052;43.338;25.502;2023-07-13T01:38:18;100439.72;;;21.82;100.00
2268;BME280;11052;43.338;25.502;2023-07-13T01:40:45;100431.41;;;21.75;100.00
2268;BME280;11052;43.338;25.502;2023-07-13T01:43:12;100436.44;;;21.78;100.00
2268;BME280;11052;43.338;25.502;2023-07-13T01:45:40;100428.75;;;21.75;100.00
2268;BME280;11052;43.338;25.502;2023-07-13T01:48:07;100430.78;;;21.72;100.00
2268;BME280;11052;43.338;25.502;2023-07-13T01:50:34;100427.31;;;21.71;100.00
2268;BME280;11052;43.338;25.502;2023-07-13T01:53:02;100420.94;;;21.63;100.00
2268;BME280;11052;43.338;25.502;2023-07-13T01:55:31;100431.63;;;21.61;100.00
2268;BME280;11052;43.338;25.502;2023-07-13T01:57:59;100434.25;;;21.61;100.00
2268;BME280;11052;43.338;25.502;2023-07-13T02:00:26;100439.53;;;21.61;100.00
2268;BME280;11052;43.338;25.502;2023-07-13T02:02:53;100435.94;;;21.62;100.00
2268;BME280;11052;43.338;25.502;2023-07-13T02:05:20;100438.91;;;21.57;100.00
2268;BME280;11052;43.338;25.502;2023-07-13T02:07:47;100440.19;;;21.52;100.00
2268;BME280;11052;43.338;25.502;2023-07-13T02:10:14;100437.28;;;21.44;100.00
2268;BME280;11052;43.338;25.502;2023-07-13T02:12:44;100445.19;;;21.44;100.00
2268;BME280;11052;43.338;25.502;2023-07-13T02:15:11;100443.41;;;21.44;100.00
2268;BME280;11052;43.338;25.502;2023-07-13T02:17:38;100436.88;;;21.37;100.00
2268;BME280;11052;43.338;25.502;2023-07-13T02:20:06;100440.47;;;21.36;100.00
2268;BME280;11052;43.338;25.502;2023-07-13T02:22:35;100440.25;;;21.39;100.00
2268;BME280;11052;43.338;25.502;2023-07-13T02:25:02;100440.59;;;21.35;100.00
2268;BME280;11052;43.338;25.502;2023-07-13T02:27:30;100442.50;;;21.33;100.00
2268;BME280;11052;43.338;25.502;2023-07-13T02:29:58;100445.75;;;21.36;100.00
2268;BME280;11052;43.338;25.502;2023-07-13T02:32:25;100450.81;;;21.39;100.00
2268;BME280;11052;43.338;25.502;2023-07-13T02:34:52;100451.44;;;21.43;100.00
2268;BME280;11052;43.338;25.502;2023-07-13T02:37:20;100452.88;;;21.47;100.00
2268;BME280;11052;43.338;25.502;2023-07-13T02:39:47;100458.91;;;21.49;100.00
2268;BME280;11052;43.338;25.502;2023-07-13T02:42:14;100452.56;;;21.51;100.00
2268;BME280;11052;43.338;25.502;2023-07-13T02:44:41;100451.44;;;21.43;100.00
2268;BME280;11052;43.338;25.502;2023-07-13T02:47:10;100458.81;;;21.38;100.00
2268;BME280;11052;43.338;25.502;2023-07-13T02:49:37;100459.06;;;21.35;100.00
2268;BME280;11052;43.338;25.502;2023-07-13T02:52:05;100449.97;;;21.39;100.00
2268;BME280;11052;43.338;25.502;2023-07-13T02:54:32;100455.25;;;21.39;100.00
2268;BME280;11052;43.338;25.502;2023-07-13T02:56:59;100458.50;;;21.42;100.00
2268;BME280;11052;43.338;25.502;2023-07-13T02:59:26;100454.16;;;21.41;100.00
2268;BME280;11052;43.338;25.502;2023-07-13T03:01:53;100461.13;;;21.42;100.00
2268;BME280;11052;43.338;25.502;2023-07-13T03:04:22;100460.06;;;21.45;100.00
2268;BME280;11052;43.338;25.502;2023-07-13T03:06:49;100464.16;;;21.49;100.00
2268;BME280;11052;43.338;25.502;2023-07-13T03:09:17;100461.19;;;21.53;100.00
2268;BME280;11052;43.338;25.502;2023-07-13T03:11:44;100454.34;;;21.51;100.00
2268;BME280;11052;43.338;25.502;2023-07-13T03:14:11;100452.44;;;21.53;100.00
2268;BME280;11052;43.338;25.502;2023-07-13T03:16:38;100457.50;;;21.56;100.00
2268;BME280;11052;43.338;25.502;2023-07-13T03:19:05;100458.13;;;21.59;100.00
2268;BME280;11052;43.338;25.502;2023-07-13T03:21:33;100453.22;;;21.66;100.00
2268;BME280;11052;43.338;25.502;2023-07-13T03:24:00;100452.00;;;21.70;100.00
2268;BME280;11052;43.338;25.502;2023-07-13T03:26:28;100462.22;;;21.75;100.00
2268;BME280;11052;43.338;25.502;2023-07-13T03:28:55;100460.09;;;21.80;100.00
2268;BME280;11052;43.338;25.502;2023-07-13T03:31:24;100463.34;;;21.83;100.00
2268;BME280;11052;43.338;25.502;2023-07-13T03:33:52;100462.16;;;21.87;100.00
2268;BME280;11052;43.338;25.502;2023-07-13T03:36:21;100465.41;;;21.91;100.00
2268;BME280;11052;43.338;25.502;2023-07-13T03:38:51;100460.13;;;21.91;100.00
2268;BME280;11052;43.338;25.502;2023-07-13T03:41:19;100470.34;;;21.96;100.00
2268;BME280;11052;43.338;25.502;2023-07-13T03:43:46;100466.53;;;22.00;100.00
2268;BME280;11052;43.338;25.502;2023-07-13T03:46:14;100461.91;;;22.03;100.00
2268;BME280;11052;43.338;25.502;2023-07-13T03:48:43;100465.25;;;22.05;100.00
2268;BME280;11052;43.338;25.502;2023-07-13T03:51:12;100464.06;;;22.09;100.00
2268;BME280;11052;43.338;25.502;2023-07-13T03:53:42;100466.13;;;22.17;100.00
2268;BME280;11052;43.338;25.502;2023-07-13T03:56:12;100476.13;;;22.24;100.00
2268;BME280;11052;43.338;25.502;2023-07-13T03:58:42;100474.09;;;22.28;100.00
2268;BME280;11052;43.338;25.502;2023-07-13T04:01:11;100479.50;;;22.27;100.00
2268;BME280;11052;43.338;25.502;2023-07-13T04:03:38;100480.59;;;22.35;100.00
2268;BME280;11052;43.338;25.502;2023-07-13T04:06:08;100471.97;;;22.44;100.00
2268;BME280;11052;43.338;25.502;2023-07-13T04:08:40;100480.38;;;22.49;100.00
2268;BME280;11052;43.338;25.502;2023-07-13T04:11:08;100478.19;;;22.54;100.00
2268;BME280;11052;43.338;25.502;2023-07-13T04:13:36;100477.72;;;22.61;100.00
2268;BME280;11052;43.338;25.502;2023-07-13T04:16:04;100480.63;;;22.69;100.00
2268;BME280;11052;43.338;25.502;2023-07-13T04:18:31;100480.88;;;22.77;100.00
2268;BME280;11052;43.338;25.502;2023-07-13T04:20:58;100478.34;;;22.75;100.00
2268;BME280;11052;43.338;25.502;2023-07-13T04:23:25;100481.38;;;22.82;100.00
2268;BME280;11052;43.338;25.502;2023-07-13T04:25:53;100478.00;;;22.91;100.00
2268;BME280;11052;43.338;25.502;2023-07-13T04:28:21;100486.78;;;23.03;100.00
2268;BME280;11052;43.338;25.502;2023-07-13T04:30:49;100486.91;;;23.24;100.00
2268;BME280;11052;43.338;25.502;2023-07-13T04:33:16;100483.47;;;23.44;100.00
2268;BME280;11052;43.338;25.502;2023-07-13T04:35:47;100484.66;;;23.51;100.00
2268;BME280;11052;43.338;25.502;2023-07-13T04:38:15;100482.97;;;23.50;100.00
2268;BME280;11052;43.338;25.502;2023-07-13T04:40:44;100489.34;;;23.47;100.00
2268;BME280;11052;43.338;25.502;2023-07-13T04:43:11;100487.28;;;23.51;100.00
2268;BME280;11052;43.338;25.502;2023-07-13T04:45:38;100488.38;;;23.48;100.00
2268;BME280;11052;43.338;25.502;2023-07-13T04:48:07;100481.03;;;23.52;100.00
2268;BME280;11052;43.338;25.502;2023-07-13T04:50:36;100499.09;;;23.58;100.00
2268;BME280;11052;43.338;25.502;2023-07-13T04:53:03;100497.38;;;24.00;100.00
2268;BME280;11052;43.338;25.502;2023-07-13T04:55:31;100488.56;;;24.52;100.00
2268;BME280;11052;43.338;25.502;2023-07-13T04:57:58;100488.56;;;25.04;100.00
2268;BME280;11052;43.338;25.502;2023-07-13T05:00:25;100488.94;;;25.49;100.00
2268;BME280;11052;43.338;25.502;2023-07-13T05:02:54;100489.53;;;26.01;100.00
2268;BME280;11052;43.338;25.502;2023-07-13T05:05:23;100495.94;;;26.47;100.00
2268;BME280;11052;43.338;25.502;2023-07-13T05:07:50;100498.72;;;26.92;100.00
2268;BME280;11052;43.338;25.502;2023-07-13T05:10:17;100502.38;;;27.28;100.00
2268;BME280;11052;43.338;25.502;2023-07-13T05:12:44;100499.69;;;27.55;100.00
2268;BME280;11052;43.338;25.502;2023-07-13T05:15:12;100493.22;;;27.75;100.00
2268;BME280;11052;43.338;25.502;2023-07-13T05:17:39;100502.53;;;27.89;100.00
2268;BME280;11052;43.338;25.502;2023-07-13T05:20:07;100501.06;;;28.13;100.00
2268;BME280;11052;43.338;25.502;2023-07-13T05:22:36;100500.88;;;28.50;100.00
2268;BME280;11052;43.338;25.502;2023-07-13T05:25:05;100502.63;;;28.93;100.00
2268;BME280;11052;43.338;25.502;2023-07-13T05:27:33;100498.47;;;29.32;100.00
2268;BME280;11052;43.338;25.502;2023-07-13T05:30:01;100506.00;;;29.37;100.00
2268;BME280;11052;43.338;25.502;2023-07-13T05:32:28;100504.03;;;29.55;100.00
2268;BME280;11052;43.338;25.502;2023-07-13T05:34:55;100501.13;;;30.07;100.00
2268;BME280;11052;43.338;25.502;2023-07-13T05:37:22;100503.81;;;30.23;100.00
2268;BME280;11052;43.338;25.502;2023-07-13T05:39:51;100504.75;;;30.47;100.00
2268;BME280;11052;43.338;25.502;2023-07-13T05:42:18;100495.72;;;30.64;100.00
2268;BME280;11052;43.338;25.502;2023-07-13T05:44:45;100500.16;;;30.96;100.00
2268;BME280;11052;43.338;25.502;2023-07-13T05:47:12;100499.84;;;31.30;100.00
2268;BME280;11052;43.338;25.502;2023-07-13T05:49:40;100499.66;;;31.32;100.00
2268;BME280;11052;43.338;25.502;2023-07-13T05:52:07;100499.16;;;31.28;100.00
2268;BME280;11052;43.338;25.502;2023-07-13T05:54:35;100508.84;;;31.37;100.00
2268;BME280;11052;43.338;25.502;2023-07-13T05:57:04;100509.88;;;31.28;100.00
2268;BME280;11052;43.338;25.502;2023-07-13T05:59:31;100513.53;;;31.66;100.00
2268;BME280;11052;43.338;25.502;2023-07-13T06:01:58;100508.75;;;31.84;100.00
2268;BME280;11052;43.338;25.502;2023-07-13T06:04:25;100513.44;;;32.05;100.00
2268;BME280;11052;43.338;25.502;2023-07-13T06:06:52;100513.44;;;32.28;100.00
2268;BME280;11052;43.338;25.502;2023-07-13T06:09:19;100518.38;;;32.54;100.00
2268;BME280;11052;43.338;25.502;2023-07-13T06:11:47;100525.06;;;32.58;100.00
2268;BME280;11052;43.338;25.502;2023-07-13T06:14:15;100523.81;;;32.83;100.00
2268;BME280;11052;43.338;25.502;2023-07-13T06:16:42;100516.94;;;32.96;100.00
2268;BME280;11052;43.338;25.502;2023-07-13T06:19:09;100519.88;;;33.01;100.00
2268;BME280;11052;43.338;25.502;2023-07-13T06:21:36;100517.91;;;33.24;100.00
2268;BME280;11052;43.338;25.502;2023-07-13T06:24:04;100520.16;;;33.35;100.00
2268;BME280;11052;43.338;25.502;2023-07-13T06:26:31;100520.75;;;33.52;100.00
2268;BME280;11052;43.338;25.502;2023-07-13T06:28:58;100526.56;;;33.70;100.00
2268;BME280;11052;43.338;25.502;2023-07-13T06:31:27;100520.41;;;33.76;100.00
2268;BME280;11052;43.338;25.502;2023-07-13T06:33:54;100525.41;;;33.79;100.00
2268;BME280;11052;43.338;25.502;2023-07-13T06:36:21;100523.16;;;34.04;100.00
2268;BME280;11052;43.338;25.502;2023-07-13T06:38:48;100534.38;;;34.08;86.68
2268;BME280;11052;43.338;25.502;2023-07-13T06:41:15;100531.34;;;34.39;94.03
2268;BME280;11052;43.338;25.502;2023-07-13T06:43:42;100527.53;;;34.55;90.23
2268;BME280;11052;43.338;25.502;2023-07-13T06:46:10;100526.94;;;34.59;91.62
2268;BME280;11052;43.338;25.502;2023-07-13T06:48:38;100525.66;;;34.83;87.93
2268;BME280;11052;43.338;25.502;2023-07-13T06:51:05;100518.53;;;35.10;93.32
2268;BME280;11052;43.338;25.502;2023-07-13T06:53:32;100525.66;;;35.24;94.93
2268;BME280;11052;43.338;25.502;2023-07-13T06:55:59;100520.81;;;35.47;80.70
2268;BME280;11052;43.338;25.502;2023-07-13T06:58:26;100527.88;;;35.62;80.24
2268;BME280;11052;43.338;25.502;2023-07-13T07:00:53;100524.56;;;35.73;76.12
2268;BME280;11052;43.338;25.502;2023-07-13T07:03:20;100520.47;;;35.84;70.67
2268;BME280;11052;43.338;25.502;2023-07-13T07:05:49;100518.81;;;35.89;65.57
2268;BME280;11052;43.338;25.502;2023-07-13T07:08:16;100523.34;;;35.75;61.50
2268;BME280;11052;43.338;25.502;2023-07-13T07:10:43;100515.22;;;35.69;67.24
2268;BME280;11052;43.338;25.502;2023-07-13T07:13:10;100521.03;;;35.66;69.34
2268;BME280;11052;43.338;25.502;2023-07-13T07:15:37;100522.97;;;35.92;64.98
2268;BME280;11052;43.338;25.502;2023-07-13T07:18:05;100522.56;;;36.41;65.29
2268;BME280;11052;43.338;25.502;2023-07-13T07:20:32;100516.78;;;36.31;59.92
2268;BME280;11052;43.338;25.502;2023-07-13T07:23:01;100523.81;;;36.12;60.55
2268;BME280;11052;43.338;25.502;2023-07-13T07:25:28;100521.31;;;35.97;59.37
2268;BME280;11052;43.338;25.502;2023-07-13T07:27:57;100517.19;;;36.15;66.36
2268;BME280;11052;43.338;25.502;2023-07-13T07:30:25;100520.41;;;35.70;63.79
2268;BME280;11052;43.338;25.502;2023-07-13T07:32:52;100509.59;;;35.57;64.17
2268;BME280;11052;43.338;25.502;2023-07-13T07:35:19;100511.13;;;35.79;67.89
2268;BME280;11052;43.338;25.502;2023-07-13T07:37:46;100509.28;;;35.93;62.17
2268;BME280;11052;43.338;25.502;2023-07-13T07:40:15;100507.13;;;35.62;62.55
2268;BME280;11052;43.338;25.502;2023-07-13T07:42:42;100504.28;;;35.90;65.82
2268;BME280;11052;43.338;25.502;2023-07-13T07:45:10;100508.88;;;36.09;66.95
2268;BME280;11052;43.338;25.502;2023-07-13T07:47:37;100503.72;;;36.28;61.15
2268;BME280;11052;43.338;25.502;2023-07-13T07:50:05;100508.81;;;36.69;64.74
2268;BME280;11052;43.338;25.502;2023-07-13T07:52:32;100507.19;;;36.48;59.63
2268;BME280;11052;43.338;25.502;2023-07-13T07:54:59;100503.22;;;36.57;60.13
2268;BME280;11052;43.338;25.502;2023-07-13T07:57:28;100500.06;;;36.73;60.83
2268;BME280;11052;43.338;25.502;2023-07-13T07:59:55;100489.91;;;36.75;67.33
2268;BME280;11052;43.338;25.502;2023-07-13T08:02:22;100492.75;;;36.94;64.68
2268;BME280;11052;43.338;25.502;2023-07-13T08:04:49;100497.78;;;36.84;63.17
2268;BME280;11052;43.338;25.502;2023-07-13T08:07:16;100494.63;;;36.93;65.92
2268;BME280;11052;43.338;25.502;2023-07-13T08:09:43;100504.81;;;36.98;62.42
2268;BME280;11052;43.338;25.502;2023-07-13T08:12:12;100498.09;;;37.14;62.58
2268;BME280;11052;43.338;25.502;2023-07-13T08:14:40;100497.53;;;36.98;62.87
2268;BME280;11052;43.338;25.502;2023-07-13T08:17:07;100505.44;;;37.00;61.07
2268;BME280;11052;43.338;25.502;2023-07-13T08:19:34;100495.66;;;36.99;60.64
2268;BME280;11052;43.338;25.502;2023-07-13T08:22:02;100496.88;;;37.48;64.52
2268;BME280;11052;43.338;25.502;2023-07-13T08:24:29;100502.97;;;37.36;57.42
2268;BME280;11052;43.338;25.502;2023-07-13T08:26:56;100509.91;;;37.70;54.06
2268;BME280;11052;43.338;25.502;2023-07-13T08:29:23;100496.63;;;37.56;60.34
2268;BME280;11052;43.338;25.502;2023-07-13T08:31:51;100498.94;;;37.90;64.29
2268;BME280;11052;43.338;25.502;2023-07-13T08:34:18;100505.94;;;38.23;61.78
2268;BME280;11052;43.338;25.502;2023-07-13T08:36:46;100498.09;;;38.15;55.34
2268;BME280;11052;43.338;25.502;2023-07-13T08:39:13;100495.50;;;38.01;57.69
2268;BME280;11052;43.338;25.502;2023-07-13T08:41:40;100498.19;;;37.77;52.66
2268;BME280;11052;43.338;25.502;2023-07-13T08:44:19;100486.72;;;37.81;54.24
2268;BME280;11052;43.338;25.502;2023-07-13T08:46:54;100491.41;;;37.92;54.34
2268;BME280;11052;43.338;25.502;2023-07-13T08:49:23;100480.75;;;38.22;52.54
2268;BME280;11052;43.338;25.502;2023-07-13T08:51:55;100486.56;;;38.44;54.55
2268;BME280;11052;43.338;25.502;2023-07-13T08:54:28;100487.16;;;38.28;53.39
2268;BME280;11052;43.338;25.502;2023-07-13T08:56:58;100490.13;;;38.45;57.17
2268;BME280;11052;43.338;25.502;2023-07-13T08:59:28;100484.53;;;38.64;53.60
2268;BME280;11052;43.338;25.502;2023-07-13T09:02:16;100478.75;;;38.36;47.93
2268;BME280;11052;43.338;25.502;2023-07-13T09:04:49;100475.66;;;38.32;55.39
2268;BME280;11052;43.338;25.502;2023-07-13T09:07:24;100473.47;;;38.66;52.71
2268;BME280;11052;43.338;25.502;2023-07-13T09:10:14;100467.44;;;38.82;54.11
2268;BME280;11052;43.338;25.502;2023-07-13T09:12:50;100466.53;;;38.88;58.47
2268;BME280;11052;43.338;25.502;2023-07-13T09:15:25;100466.81;;;38.98;52.33
2268;BME280;11052;43.338;25.502;2023-07-13T09:17:55;100464.03;;;39.05;51.21
2268;BME280;11052;43.338;25.502;2023-07-13T09:20:28;100469.69;;;38.85;50.31
2268;BME280;11052;43.338;25.502;2023-07-13T09:22:59;100465.00;;;38.56;48.96
2268;BME280;11052;43.338;25.502;2023-07-13T09:25:30;100467.06;;;38.60;50.54
2268;BME280;11052;43.338;25.502;2023-07-13T09:28:00;100455.28;;;38.05;48.19
2268;BME280;11052;43.338;25.502;2023-07-13T09:30:34;100462.63;;;38.23;51.10
2268;BME280;11052;43.338;25.502;2023-07-13T09:33:05;100463.44;;;38.66;51.78
2268;BME280;11052;43.338;25.502;2023-07-13T09:35:34;100465.06;;;39.04;52.83
2268;BME280;11052;43.338;25.502;2023-07-13T09:38:10;100469.09;;;39.31;53.05
2268;BME280;11052;43.338;25.502;2023-07-13T09:40:49;100470.75;;;39.32;49.23
2268;BME280;11052;43.338;25.502;2023-07-13T09:43:21;100461.78;;;39.32;49.64
2268;BME280;11052;43.338;25.502;2023-07-13T09:45:48;100464.72;;;39.30;47.39
2268;BME280;11052;43.338;25.502;2023-07-13T09:48:17;100460.34;;;39.29;48.08
2268;BME280;11052;43.338;25.502;2023-07-13T09:50:45;100460.13;;;39.31;47.99
2268;BME280;11052;43.338;25.502;2023-07-13T09:53:13;100465.09;;;39.64;49.82
2268;BME280;11052;43.338;25.502;2023-07-13T09:55:42;100470.41;;;39.71;48.04
2268;BME280;11052;43.338;25.502;2023-07-13T09:58:12;100472.66;;;39.74;48.72
2268;BME280;11052;43.338;25.502;2023-07-13T10:00:40;100475.53;;;39.90;47.23
2268;BME280;11052;43.338;25.502;2023-07-13T10:03:18;100473.75;;;39.84;44.57
2268;BME280;11052;43.338;25.502;2023-07-13T10:05:48;100474.06;;;39.88;49.00
2268;BME280;11052;43.338;25.502;2023-07-13T10:08:23;100474.38;;;40.10;46.59
2268;BME280;11052;43.338;25.502;2023-07-13T10:10:54;100461.72;;;40.04;47.93
2268;BME280;11052;43.338;25.502;2023-07-13T10:13:32;100455.47;;;40.03;49.09
2268;BME280;11052;43.338;25.502;2023-07-13T10:16:00;100462.66;;;39.97;46.96
2268;BME280;11052;43.338;25.502;2023-07-13T10:18:33;100453.69;;;39.85;47.39
2268;BME280;11052;43.338;25.502;2023-07-13T10:21:11;100438.69;;;39.94;50.46
2268;BME280;11052;43.338;25.502;2023-07-13T10:23:40;100434.78;;;39.79;44.43
2268;BME280;11052;43.338;25.502;2023-07-13T10:26:13;100436.94;;;40.12;47.01
2268;BME280;11052;43.338;25.502;2023-07-13T10:28:42;100438.81;;;40.23;51.20
2268;BME280;11052;43.338;25.502;2023-07-13T10:31:14;100440.47;;;40.47;49.57
2268;BME280;11052;43.338;25.502;2023-07-13T10:33:44;100448.16;;;40.50;47.13
2268;BME280;11052;43.338;25.502;2023-07-13T10:36:18;100450.28;;;40.48;43.55
2268;BME280;11052;43.338;25.502;2023-07-13T10:38:49;100451.94;;;40.26;41.96
2268;BME280;11052;43.338;25.502;2023-07-13T10:41:20;100448.06;;;40.34;43.00
2268;BME280;11052;43.338;25.502;2023-07-13T10:43:51;100451.56;;;40.11;42.07
2268;BME280;11052;43.338;25.502;2023-07-13T10:46:20;100450.63;;;40.17;50.95
2268;BME280;11052;43.338;25.502;2023-07-13T10:48:53;100449.81;;;40.16;43.97
2268;BME280;11052;43.338;25.502;2023-07-13T10:51:21;100450.03;;;40.26;48.10
2268;BME280;11052;43.338;25.502;2023-07-13T10:54:17;100449.72;;;40.35;45.62
2268;BME280;11052;43.338;25.502;2023-07-13T10:56:49;100445.81;;;40.42;43.07
2268;BME280;11052;43.338;25.502;2023-07-13T10:59:19;100442.72;;;40.50;45.51
2268;BME280;11052;43.338;25.502;2023-07-13T11:01:55;100428.47;;;40.72;48.27
2268;BME280;11052;43.338;25.502;2023-07-13T11:04:25;100423.88;;;40.72;44.34
2268;BME280;11052;43.338;25.502;2023-07-13T11:06:58;100416.91;;;40.65;43.85
2268;BME280;11052;43.338;25.502;2023-07-13T11:09:38;100412.78;;;40.62;46.42
2268;BME280;11052;43.338;25.502;2023-07-13T11:12:27;100406.44;;;40.45;44.62
2268;BME280;11052;43.338;25.502;2023-07-13T11:15:06;100404.06;;;40.48;44.02
2268;BME280;11052;43.338;25.502;2023-07-13T11:17:49;100415.91;;;40.42;43.30
2268;BME280;11052;43.338;25.502;2023-07-13T11:20:32;100412.91;;;40.55;43.36
2268;BME280;11052;43.338;25.502;2023-07-13T11:23:20;100411.75;;;40.28;43.29
2268;BME280;11052;43.338;25.502;2023-07-13T11:25:53;100406.78;;;40.25;44.56
2268;BME280;11052;43.338;25.502;2023-07-13T11:28:24;100395.81;;;40.32;45.36
2268;BME280;11052;43.338;25.502;2023-07-13T11:31:14;100395.72;;;40.38;44.05
2268;BME280;11052;43.338;25.502;2023-07-13T11:33:55;100388.47;;;40.32;42.89
2268;BME280;11052;43.338;25.502;2023-07-13T11:36:36;100387.19;;;40.23;45.29
2268;BME280;11052;43.338;25.502;2023-07-13T11:39:16;100381.06;;;39.92;44.09
2268;BME280;11052;43.338;25.502;2023-07-13T11:41:50;100385.44;;;39.93;43.30
2268;BME280;11052;43.338;25.502;2023-07-13T11:44:20;100382.97;;;39.92;43.62
2268;BME280;11052;43.338;25.502;2023-07-13T11:46:50;100369.25;;;39.98;43.27
2268;BME280;11052;43.338;25.502;2023-07-13T11:49:20;100364.63;;;40.34;44.05
2268;BME280;11052;43.338;25.502;2023-07-13T11:51:49;100367.94;;;40.24;44.83
2268;BME280;11052;43.338;25.502;2023-07-13T11:54:28;100350.47;;;40.20;44.23
2268;BME280;11052;43.338;25.502;2023-07-13T11:56:58;100342.31;;;40.20;44.63
2268;BME280;11052;43.338;25.502;2023-07-13T11:59:29;100344.91;;;40.27;44.22
2268;BME280;11052;43.338;25.502;2023-07-13T12:01:58;100339.59;;;40.20;45.13
2268;BME280;11052;43.338;25.502;2023-07-13T12:04:28;100339.69;;;40.25;44.67
2268;BME280;11052;43.338;25.502;2023-07-13T12:07:06;100326.97;;;40.03;44.56
2268;BME280;11052;43.338;25.502;2023-07-13T12:09:34;100330.06;;;39.94;42.57
2268;BME280;11052;43.338;25.502;2023-07-13T12:12:08;100325.22;;;39.96;42.40
2268;BME280;11052;43.338;25.502;2023-07-13T12:14:37;100320.28;;;39.82;42.47
2268;BME280;11052;43.338;25.502;2023-07-13T12:17:09;100317.63;;;39.87;42.58
2268;BME280;11052;43.338;25.502;2023-07-13T12:19:38;100310.78;;;40.08;43.21
2268;BME280;11052;43.338;25.502;2023-07-13T12:22:12;100304.16;;;40.15;43.68
2268;BME280;11052;43.338;25.502;2023-07-13T12:24:41;100303.13;;;40.05;42.71
2268;BME280;11052;43.338;25.502;2023-07-13T12:27:19;100299.38;;;39.94;42.77
2268;BME280;11052;43.338;25.502;2023-07-13T12:29:52;100299.97;;;39.84;41.38
2268;BME280;11052;43.338;25.502;2023-07-13T12:32:20;100287.09;;;39.91;41.53
2268;BME280;11052;43.338;25.502;2023-07-13T12:34:53;100289.66;;;40.10;40.73
2268;BME280;11052;43.338;25.502;2023-07-13T12:37:23;100292.75;;;40.02;43.57
2268;BME280;11052;43.338;25.502;2023-07-13T12:39:51;100290.13;;;40.07;44.54
2268;BME280;11052;43.338;25.502;2023-07-13T12:42:21;100288.59;;;39.99;42.98
2268;BME280;11052;43.338;25.502;2023-07-13T12:44:53;100284.63;;;39.78;41.19
2268;BME280;11052;43.338;25.502;2023-07-13T12:47:21;100286.38;;;39.84;41.20
2268;BME280;11052;43.338;25.502;2023-07-13T12:49:50;100278.47;;;39.94;44.44
2268;BME280;11052;43.338;25.502;2023-07-13T12:52:21;100281.41;;;40.05;43.79
2268;BME280;11052;43.338;25.502;2023-07-13T12:54:58;100284.47;;;40.08;43.41
2268;BME280;11052;43.338;25.502;2023-07-13T12:57:26;100281.47;;;40.21;42.44